Flight Track Log - Related Links

Times and Time Zones

All times are in EDT time to prevent confusion due to time zone crossing. See the CTL22 flight status page for this flight to view local times or setup timezone preferences in your user account.

Time Position Orientation Groundspeed Altitude Reporting Facility
EDT Latitude Longitude Course Direction KTS km/h feet Rate Location/Type
Thu 10:07:33 PM 42.4211 -83.8883 294° West 152 282 6.000  Level Cleveland Center
Thu 10:08:34 PM 42.4383 -83.9397 294° West 151 280 6.100 -40 Climbing Cleveland Center
Thu 10:10:00 PM 42.4164 -84.0043 245° Southwest  Level FlightAware Approximate
Thu 10:17:00 PM 42.5165 -84.3241 297° West  Level Estimated
Thu 10:18:00 PM 42.5287 -84.3709 290° West  Level FlightAware Approximate
Thu 10:19:00 PM 42.5410 -84.4178 290° West  Level FlightAware Approximate
Thu 10:20:00 PM 42.5532 -84.4646 290° West  Level FlightAware Approximate
Thu 10:21:00 PM 42.5655 -84.5115 290° West  Level FlightAware Approximate
Thu 10:22:00 PM 42.5777 -84.5583 289° West  Level FlightAware Approximate
Thu 10:23:00 PM 42.5899 -84.6052 289° West  Level FlightAware Approximate
Thu 10:24:00 PM 42.6020 -84.6521 289° West  Level FlightAware Approximate
Thu 10:25:00 PM 42.6142 -84.6991 289° West  Level FlightAware Approximate
Thu 10:26:00 PM 42.6263 -84.7460 289° West  Level FlightAware Approximate
Thu 10:27:00 PM 42.6384 -84.7930 289° West  Level FlightAware Approximate
Thu 10:28:00 PM 42.6505 -84.8399 289° West  Level FlightAware Approximate
Thu 10:29:00 PM 42.6626 -84.8869 289° West  Level FlightAware Approximate
Thu 10:29:58 PM 42.7697 -85.0547 298° West 157 291 5.100  Level Chicago Center
Thu 10:30:00 PM 42.6746 -84.9340 289° West  Level FlightAware Approximate
Thu 10:31:00 PM 42.6866 -84.9810 289° West  Level FlightAware Approximate
Thu 10:31:00 PM 42.7856 -85.1119 291° West 160 296 4.500  Level Chicago Center
Thu 10:32:00 PM 42.7028 -85.0257 299° West  Level Estimated
Thu 10:32:01 PM 42.7997 -85.1692 289° West 160 296 3.900  Level Chicago Center
Thu 10:33:00 PM 42.7180 -85.0710 295° West  Level FlightAware Approximate
Thu 10:33:02 PM 42.8161 -85.2250 292° West 160 296 3.400  Level Chicago Center
Thu 10:34:00 PM 42.7342 -85.1157 299° West  Level Estimated
Thu 10:34:04 PM 42.8344 -85.2939 290° West 160 296 2.900  Level Chicago Center
Thu 10:35:00 PM 42.7512 -85.1599 298° West  Level FlightAware Approximate
Thu 10:35:05 PM 42.8497 -85.3481 291° West 156 290 2.500  Level Chicago Center
Thu 10:36:07 PM 42.8661 -85.4042 292° West 157 291 2.100 -488 Descending Chicago Center
Thu 10:37:08 PM 42.8778 -85.4644 285° West 160 296 1.500 -585 Descending Chicago Center
Thu 10:38:10 PM 42.8792 -85.5136 272° West 143 266 900 -581 Descending Chicago Center
Thu 10:40:00 PM 42.8667 -85.5167 294° West  Level FlightAware Approximate

Login

Don't have an account? Register now (free) for customized features, flight alerts, and more!